sensor_id;sensor_type;location;lat;lon;timestamp;pressure;altitude;pressure_sealevel;temperature;humidity
24045;BME280;26257;49.442;8.422;2022-09-09T00:01:30;99988.81;;;20.18;100.00
24045;BME280;26257;49.442;8.422;2022-09-09T00:04:23;99997.03;;;20.14;100.00
24045;BME280;26257;49.442;8.422;2022-09-09T00:07:15;99993.56;;;20.10;100.00
24045;BME280;26257;49.442;8.422;2022-09-09T00:09:49;99993.91;;;20.01;100.00
24045;BME280;26257;49.442;8.422;2022-09-09T00:15:01;99982.31;;;20.01;100.00
24045;BME280;26257;49.442;8.422;2022-09-09T00:18:06;99988.66;;;19.98;100.00
24045;BME280;26257;49.442;8.422;2022-09-09T00:20:52;99987.41;;;20.08;100.00
24045;BME280;26257;49.442;8.422;2022-09-09T00:23:28;99974.16;;;20.04;100.00
24045;BME280;26257;49.442;8.422;2022-09-09T00:28:58;99987.44;;;19.82;100.00
24045;BME280;26257;49.442;8.422;2022-09-09T00:31:28;99985.75;;;20.04;100.00
24045;BME280;26257;49.442;8.422;2022-09-09T00:33:59;99984.81;;;19.81;100.00
24045;BME280;26257;49.442;8.422;2022-09-09T00:36:27;99978.47;;;19.83;100.00
24045;BME280;26257;49.442;8.422;2022-09-09T00:39:00;99973.13;;;19.83;100.00
24045;BME280;26257;49.442;8.422;2022-09-09T00:44:20;99977.78;;;19.78;100.00
24045;BME280;26257;49.442;8.422;2022-09-09T00:47:30;99974.00;;;19.84;100.00
24045;BME280;26257;49.442;8.422;2022-09-09T00:50:02;99973.88;;;19.87;100.00
24045;BME280;26257;49.442;8.422;2022-09-09T00:52:40;99968.25;;;19.94;100.00
24045;BME280;26257;49.442;8.422;2022-09-09T00:57:58;99966.41;;;19.96;100.00
24045;BME280;26257;49.442;8.422;2022-09-09T01:00:27;99961.53;;;20.07;100.00
24045;BME280;26257;49.442;8.422;2022-09-09T01:03:18;99970.50;;;20.06;100.00
24045;BME280;26257;49.442;8.422;2022-09-09T01:11:57;99971.19;;;20.11;100.00
24045;BME280;26257;49.442;8.422;2022-09-09T01:17:15;99974.66;;;19.90;100.00
24045;BME280;26257;49.442;8.422;2022-09-09T01:24:41;99993.91;;;20.01;100.00
24045;BME280;26257;49.442;8.422;2022-09-09T01:27:09;99992.03;;;20.03;100.00
24045;BME280;26257;49.442;8.422;2022-09-09T01:29:35;99991.50;;;19.94;100.00
24045;BME280;26257;49.442;8.422;2022-09-09T01:32:36;99988.03;;;19.90;100.00
24045;BME280;26257;49.442;8.422;2022-09-09T01:34:49;99985.56;;;19.84;100.00
24045;BME280;26257;49.442;8.422;2022-09-09T01:37:15;99989.53;;;19.99;100.00
24045;BME280;26257;49.442;8.422;2022-09-09T01:39:43;99985.72;;;19.81;100.00
24045;BME280;26257;49.442;8.422;2022-09-09T01:42:12;99984.16;;;19.74;100.00
24045;BME280;26257;49.442;8.422;2022-09-09T01:44:38;99978.03;;;19.95;100.00
24045;BME280;26257;49.442;8.422;2022-09-09T01:47:04;99985.56;;;19.84;100.00
24045;BME280;26257;49.442;8.422;2022-09-09T01:49:30;99981.00;;;19.88;100.00
24045;BME280;26257;49.442;8.422;2022-09-09T01:51:58;99975.69;;;19.86;100.00
24045;BME280;26257;49.442;8.422;2022-09-09T01:54:26;99978.13;;;19.92;100.00
24045;BME280;26257;49.442;8.422;2022-09-09T02:00:04;99976.41;;;19.91;100.00
24045;BME280;26257;49.442;8.422;2022-09-09T02:05:41;99979.63;;;19.76;100.00
24045;BME280;26257;49.442;8.422;2022-09-09T02:11:06;99992.97;;;19.78;100.00
24045;BME280;26257;49.442;8.422;2022-09-09T02:13:35;99992.69;;;19.60;100.00
24045;BME280;26257;49.442;8.422;2022-09-09T02:16:08;99983.06;;;19.80;100.00
24045;BME280;26257;49.442;8.422;2022-09-09T02:18:42;99983.75;;;19.86;100.00
24045;BME280;26257;49.442;8.422;2022-09-09T02:21:11;99968.78;;;19.79;100.00
24045;BME280;26257;49.442;8.422;2022-09-09T02:23:39;99987.53;;;19.79;100.00
24045;BME280;26257;49.442;8.422;2022-09-09T02:26:06;99977.31;;;19.90;100.00
24045;BME280;26257;49.442;8.422;2022-09-09T02:28:34;99966.22;;;19.76;100.00
24045;BME280;26257;49.442;8.422;2022-09-09T02:31:01;99979.22;;;19.62;100.00
24045;BME280;26257;49.442;8.422;2022-09-09T02:33:31;99983.63;;;19.89;100.00
24045;BME280;26257;49.442;8.422;2022-09-09T02:36:01;99989.94;;;19.62;100.00
24045;BME280;26257;49.442;8.422;2022-09-09T02:38:32;99994.38;;;19.63;100.00
24045;BME280;26257;49.442;8.422;2022-09-09T02:41:00;99995.41;;;19.59;100.00
24045;BME280;26257;49.442;8.422;2022-09-09T02:43:31;99995.38;;;19.60;100.00
24045;BME280;26257;49.442;8.422;2022-09-09T02:46:06;99997.44;;;19.51;100.00
24045;BME280;26257;49.442;8.422;2022-09-09T03:09:15;99990.25;;;18.97;100.00
24045;BME280;26257;49.442;8.422;2022-09-09T03:11:41;99986.94;;;18.89;100.00
24045;BME280;26257;49.442;8.422;2022-09-09T03:14:06;99982.47;;;19.18;100.00
24045;BME280;26257;49.442;8.422;2022-09-09T03:16:32;99987.91;;;19.15;100.00
24045;BME280;26257;49.442;8.422;2022-09-09T03:19:00;99973.81;;;19.09;100.00
24045;BME280;26257;49.442;8.422;2022-09-09T03:21:26;99983.31;;;18.92;100.00
24045;BME280;26257;49.442;8.422;2022-09-09T03:23:51;99974.47;;;18.88;100.00
24045;BME280;26257;49.442;8.422;2022-09-09T03:26:17;99985.00;;;18.94;100.00
24045;BME280;26257;49.442;8.422;2022-09-09T03:28:42;99988.69;;;18.90;100.00
24045;BME280;26257;49.442;8.422;2022-09-09T03:31:10;99985.16;;;18.90;100.00
24045;BME280;26257;49.442;8.422;2022-09-09T03:33:39;99986.97;;;18.88;100.00
24045;BME280;26257;49.442;8.422;2022-09-09T03:36:06;99987.03;;;18.86;100.00
24045;BME280;26257;49.442;8.422;2022-09-09T03:38:32;99994.34;;;19.09;100.00
24045;BME280;26257;49.442;8.422;2022-09-09T03:40:59;99980.38;;;18.99;100.00
24045;BME280;26257;49.442;8.422;2022-09-09T03:43:26;99994.44;;;19.06;100.00
24045;BME280;26257;49.442;8.422;2022-09-09T03:45:52;99993.56;;;19.05;100.00
24045;BME280;26257;49.442;8.422;2022-09-09T03:48:18;99983.03;;;18.72;100.00
24045;BME280;26257;49.442;8.422;2022-09-09T03:50:48;99991.91;;;19.01;100.00
24045;BME280;26257;49.442;8.422;2022-09-09T03:53:15;99991.31;;;18.92;100.00
24045;BME280;26257;49.442;8.422;2022-09-09T03:55:49;100002.91;;;18.92;100.00
24045;BME280;26257;49.442;8.422;2022-09-09T03:58:16;100000.97;;;18.68;100.00
24045;BME280;26257;49.442;8.422;2022-09-09T04:00:56;100002.03;;;18.63;100.00
24045;BME280;26257;49.442;8.422;2022-09-09T04:03:22;99998.13;;;18.74;100.00
24045;BME280;26257;49.442;8.422;2022-09-09T04:05:50;99999.28;;;18.93;100.00
24045;BME280;26257;49.442;8.422;2022-09-09T04:08:16;99981.94;;;19.06;100.00
24045;BME280;26257;49.442;8.422;2022-09-09T04:10:41;99983.63;;;18.81;100.00
24045;BME280;26257;49.442;8.422;2022-09-09T04:13:07;99987.75;;;18.91;100.00
24045;BME280;26257;49.442;8.422;2022-09-09T04:15:32;99989.00;;;18.80;100.00
24045;BME280;26257;49.442;8.422;2022-09-09T04:17:58;99989.97;;;18.77;100.00
24045;BME280;26257;49.442;8.422;2022-09-09T04:20:23;100001.06;;;18.94;100.00
24045;BME280;26257;49.442;8.422;2022-09-09T04:22:49;100001.66;;;18.75;100.00
24045;BME280;26257;49.442;8.422;2022-09-09T04:25:15;100000.47;;;18.85;100.00
24045;BME280;26257;49.442;8.422;2022-09-09T04:27:40;100001.31;;;18.85;100.00
24045;BME280;26257;49.442;8.422;2022-09-09T04:30:06;99997.75;;;18.86;100.00
24045;BME280;26257;49.442;8.422;2022-09-09T04:32:35;99994.75;;;18.97;100.00
24045;BME280;26257;49.442;8.422;2022-09-09T04:35:02;99996.53;;;18.96;100.00
24045;BME280;26257;49.442;8.422;2022-09-09T04:37:27;100001.25;;;18.88;100.00
24045;BME280;26257;49.442;8.422;2022-09-09T04:39:53;99997.16;;;19.04;100.00
24045;BME280;26257;49.442;8.422;2022-09-09T04:42:19;100004.47;;;18.99;100.00
24045;BME280;26257;49.442;8.422;2022-09-09T04:44:45;100019.16;;;18.86;100.00
24045;BME280;26257;49.442;8.422;2022-09-09T04:47:11;100012.50;;;18.99;100.00
24045;BME280;26257;49.442;8.422;2022-09-09T04:49:37;100018.84;;;18.95;100.00
24045;BME280;26257;49.442;8.422;2022-09-09T04:52:03;100018.59;;;19.04;100.00
24045;BME280;26257;49.442;8.422;2022-09-09T04:54:29;100008.91;;;19.00;100.00
24045;BME280;26257;49.442;8.422;2022-09-09T04:56:55;100021.03;;;19.12;100.00
24045;BME280;26257;49.442;8.422;2022-09-09T04:59:21;100017.34;;;19.16;100.00
24045;BME280;26257;49.442;8.422;2022-09-09T05:01:47;100015.25;;;19.24;100.00
24045;BME280;26257;49.442;8.422;2022-09-09T05:04:13;100019.84;;;19.21;100.00
24045;BME280;26257;49.442;8.422;2022-09-09T05:06:40;100024.19;;;19.25;100.00
24045;BME280;26257;49.442;8.422;2022-09-09T05:09:07;100022.81;;;19.41;100.00
24045;BME280;26257;49.442;8.422;2022-09-09T05:11:33;100015.13;;;19.29;100.00
24045;BME280;26257;49.442;8.422;2022-09-09T05:14:02;100035.38;;;19.39;100.00
24045;BME280;26257;49.442;8.422;2022-09-09T05:16:28;100029.13;;;19.10;100.00
24045;BME280;26257;49.442;8.422;2022-09-09T05:18:54;100031.00;;;19.35;100.00
24045;BME280;26257;49.442;8.422;2022-09-09T05:21:21;100025.75;;;19.32;100.00
24045;BME280;26257;49.442;8.422;2022-09-09T05:23:47;100035.63;;;19.30;100.00
24045;BME280;26257;49.442;8.422;2022-09-09T05:26:15;100036.69;;;19.24;100.00
24045;BME280;26257;49.442;8.422;2022-09-09T05:28:41;100042.56;;;19.37;100.00
24045;BME280;26257;49.442;8.422;2022-09-09T05:31:08;100044.16;;;19.15;100.00
24045;BME280;26257;49.442;8.422;2022-09-09T05:33:34;100053.38;;;19.34;100.00
24045;BME280;26257;49.442;8.422;2022-09-09T05:36:02;100047.81;;;19.40;100.00
24045;BME280;26257;49.442;8.422;2022-09-09T05:38:30;100042.19;;;19.20;100.00
24045;BME280;26257;49.442;8.422;2022-09-09T05:40:56;100047.72;;;19.15;100.00
24045;BME280;26257;49.442;8.422;2022-09-09T05:43:23;100052.31;;;19.10;100.00
24045;BME280;26257;49.442;8.422;2022-09-09T05:46:19;100055.06;;;18.79;100.00
24045;BME280;26257;49.442;8.422;2022-09-09T05:48:45;100055.69;;;19.17;100.00
24045;BME280;26257;49.442;8.422;2022-09-09T05:51:14;100055.00;;;19.10;100.00
24045;BME280;26257;49.442;8.422;2022-09-09T05:53:43;100057.53;;;19.15;100.00
24045;BME280;26257;49.442;8.422;2022-09-09T05:56:10;100064.56;;;19.19;100.00
24045;BME280;26257;49.442;8.422;2022-09-09T05:58:39;100072.78;;;18.83;100.00
24045;BME280;26257;49.442;8.422;2022-09-09T06:01:07;100072.69;;;18.86;100.00
24045;BME280;26257;49.442;8.422;2022-09-09T06:03:37;100081.88;;;19.35;100.00
24045;BME280;26257;49.442;8.422;2022-09-09T06:06:06;100076.34;;;19.13;100.00
24045;BME280;26257;49.442;8.422;2022-09-09T06:08:33;100080.50;;;19.22;100.00
24045;BME280;26257;49.442;8.422;2022-09-09T06:11:25;100070.50;;;19.57;100.00
24045;BME280;26257;49.442;8.422;2022-09-09T06:13:49;100070.31;;;19.62;100.00
24045;BME280;26257;49.442;8.422;2022-09-09T06:16:20;100064.66;;;19.71;100.00
24045;BME280;26257;49.442;8.422;2022-09-09T06:18:47;100067.31;;;19.97;98.80
24045;BME280;26257;49.442;8.422;2022-09-09T06:21:19;100068.66;;;20.10;98.08
24045;BME280;26257;49.442;8.422;2022-09-09T06:23:45;100064.72;;;19.96;97.19
24045;BME280;26257;49.442;8.422;2022-09-09T06:26:12;100063.53;;;20.04;97.01
24045;BME280;26257;49.442;8.422;2022-09-09T06:28:38;100066.13;;;19.81;97.90
24045;BME280;26257;49.442;8.422;2022-09-09T06:31:06;100073.81;;;19.64;100.00
24045;BME280;26257;49.442;8.422;2022-09-09T06:33:37;100064.63;;;20.25;97.01
24045;BME280;26257;49.442;8.422;2022-09-09T06:36:05;100066.31;;;20.27;95.46
24045;BME280;26257;49.442;8.422;2022-09-09T06:38:31;100070.00;;;20.23;95.83
24045;BME280;26257;49.442;8.422;2022-09-09T06:40:59;100071.41;;;20.35;94.86
24045;BME280;26257;49.442;8.422;2022-09-09T06:43:25;100070.41;;;20.11;95.73
24045;BME280;26257;49.442;8.422;2022-09-09T06:45:58;100074.63;;;20.18;95.91
24045;BME280;26257;49.442;8.422;2022-09-09T06:48:24;100081.16;;;20.11;97.11
24045;BME280;26257;49.442;8.422;2022-09-09T06:51:18;100071.84;;;20.21;95.45
24045;BME280;26257;49.442;8.422;2022-09-09T06:53:45;100074.44;;;19.98;96.62
24045;BME280;26257;49.442;8.422;2022-09-09T07:01:06;100062.88;;;20.72;90.89
24045;BME280;26257;49.442;8.422;2022-09-09T07:03:32;100066.25;;;20.54;90.63
24045;BME280;26257;49.442;8.422;2022-09-09T07:05:57;100063.75;;;20.72;90.19
24045;BME280;26257;49.442;8.422;2022-09-09T07:08:24;100066.16;;;20.80;89.20
24045;BME280;26257;49.442;8.422;2022-09-09T07:10:51;100054.25;;;20.64;89.03
24045;BME280;26257;49.442;8.422;2022-09-09T07:13:25;100067.78;;;20.84;88.64
24045;BME280;26257;49.442;8.422;2022-09-09T07:15:52;100061.41;;;21.11;87.63
24045;BME280;26257;49.442;8.422;2022-09-09T07:18:18;100066.16;;;20.80;88.35
24045;BME280;26257;49.442;8.422;2022-09-09T07:20:53;100062.78;;;20.98;87.40
24045;BME280;26257;49.442;8.422;2022-09-09T07:23:19;100064.06;;;21.34;85.05
24045;BME280;26257;49.442;8.422;2022-09-09T07:25:45;100071.06;;;20.92;85.39
24045;BME280;26257;49.442;8.422;2022-09-09T07:28:11;100059.09;;;21.24;83.43
24045;BME280;26257;49.442;8.422;2022-09-09T07:30:37;100056.91;;;21.33;84.46
24045;BME280;26257;49.442;8.422;2022-09-09T07:33:03;100062.19;;;20.90;86.27
24045;BME280;26257;49.442;8.422;2022-09-09T07:35:28;100060.69;;;21.29;84.05
24045;BME280;26257;49.442;8.422;2022-09-09T07:37:54;100061.41;;;21.11;84.79
24045;BME280;26257;49.442;8.422;2022-09-09T07:40:20;100055.69;;;21.42;82.10
24045;BME280;26257;49.442;8.422;2022-09-09T07:42:47;100055.84;;;21.81;80.20
24045;BME280;26257;49.442;8.422;2022-09-09T07:45:13;100065.69;;;22.24;77.69
24045;BME280;26257;49.442;8.422;2022-09-09T07:47:39;100059.69;;;22.37;77.28
24045;BME280;26257;49.442;8.422;2022-09-09T07:50:08;100068.06;;;21.89;78.56
24045;BME280;26257;49.442;8.422;2022-09-09T07:52:34;100061.41;;;21.98;78.75
24045;BME280;26257;49.442;8.422;2022-09-09T07:55:00;100060.22;;;22.25;76.46
24045;BME280;26257;49.442;8.422;2022-09-09T07:57:28;100063.84;;;22.04;76.97
24045;BME280;26257;49.442;8.422;2022-09-09T07:59:56;100076.91;;;22.13;77.99
24045;BME280;26257;49.442;8.422;2022-09-09T08:02:22;100083.34;;;22.29;77.38
24045;BME280;26257;49.442;8.422;2022-09-09T08:04:48;100082.03;;;22.59;76.46
24045;BME280;26257;49.442;8.422;2022-09-09T08:07:13;100080.44;;;21.93;78.21
24045;BME280;26257;49.442;8.422;2022-09-09T08:09:39;100083.94;;;21.74;80.17
24045;BME280;26257;49.442;8.422;2022-09-09T08:12:04;100083.81;;;21.55;81.25
24045;BME280;26257;49.442;8.422;2022-09-09T08:14:31;100089.19;;;21.10;86.76
24045;BME280;26257;49.442;8.422;2022-09-09T08:16:57;100097.28;;;21.32;88.50
24045;BME280;26257;49.442;8.422;2022-09-09T08:19:23;100088.19;;;21.79;85.79
24045;BME280;26257;49.442;8.422;2022-09-09T08:21:49;100073.31;;;21.27;87.23
24045;BME280;26257;49.442;8.422;2022-09-09T08:24:14;100089.16;;;21.33;88.02
24045;BME280;26257;49.442;8.422;2022-09-09T08:26:43;100100.13;;;21.04;89.78
24045;BME280;26257;49.442;8.422;2022-09-09T08:29:09;100097.00;;;20.93;91.80
24045;BME280;26257;49.442;8.422;2022-09-09T08:31:37;100101.88;;;21.05;93.53
24045;BME280;26257;49.442;8.422;2022-09-09T08:34:05;100096.91;;;21.19;93.08
24045;BME280;26257;49.442;8.422;2022-09-09T08:36:35;100094.91;;;21.24;92.61
24045;BME280;26257;49.442;8.422;2022-09-09T08:39:03;100103.16;;;21.85;89.70
24045;BME280;26257;49.442;8.422;2022-09-09T09:20:12;100087.09;;;23.24;76.90
24045;BME280;26257;49.442;8.422;2022-09-09T09:25:40;100076.59;;;23.74;70.58
24045;BME280;26257;49.442;8.422;2022-09-09T09:28:24;100081.72;;;24.15;68.24
24045;BME280;26257;49.442;8.422;2022-09-09T09:33:48;100079.19;;;23.40;71.18
24045;BME280;26257;49.442;8.422;2022-09-09T09:36:15;100078.75;;;22.92;75.27
24045;BME280;26257;49.442;8.422;2022-09-09T09:38:52;100090.91;;;22.21;79.07
24045;BME280;26257;49.442;8.422;2022-09-09T09:44:40;100109.75;;;22.21;82.11
24045;BME280;26257;49.442;8.422;2022-09-09T09:47:16;100123.78;;;21.41;88.77
24045;BME280;26257;49.442;8.422;2022-09-09T09:49:59;100137.59;;;20.84;100.00
24045;BME280;26257;49.442;8.422;2022-09-09T09:52:30;100178.97;;;19.14;100.00
24045;BME280;26257;49.442;8.422;2022-09-09T09:55:03;100186.69;;;17.91;100.00
24045;BME280;26257;49.442;8.422;2022-09-09T09:57:31;100197.81;;;17.72;100.00
24045;BME280;26257;49.442;8.422;2022-09-09T10:00:04;100189.94;;;17.66;100.00
24045;BME280;26257;49.442;8.422;2022-09-09T10:02:42;100188.34;;;18.97;100.00
24045;BME280;26257;49.442;8.422;2022-09-09T10:05:18;100174.34;;;19.19;100.00
24045;BME280;26257;49.442;8.422;2022-09-09T10:07:45;100166.81;;;19.62;100.00
24045;BME280;26257;49.442;8.422;2022-09-09T10:10:25;100167.25;;;20.02;100.00
24045;BME280;26257;49.442;8.422;2022-09-09T10:13:06;100153.03;;;20.53;100.00
24045;BME280;26257;49.442;8.422;2022-09-09T10:15:48;100144.88;;;21.51;100.00
24045;BME280;26257;49.442;8.422;2022-09-09T10:28:06;100079.72;;;25.82;76.24
24045;BME280;26257;49.442;8.422;2022-09-09T10:33:38;100061.28;;;26.78;66.57
24045;BME280;26257;49.442;8.422;2022-09-09T10:36:17;100063.69;;;26.38;67.97
24045;BME280;26257;49.442;8.422;2022-09-09T10:39:05;100049.53;;;27.75;61.31
24045;BME280;26257;49.442;8.422;2022-09-09T10:47:18;100040.25;;;28.70;50.19
24045;BME280;26257;49.442;8.422;2022-09-09T10:52:45;100040.97;;;29.59;45.96
24045;BME280;26257;49.442;8.422;2022-09-09T10:55:19;100022.31;;;29.65;45.39
24045;BME280;26257;49.442;8.422;2022-09-09T10:57:50;100019.53;;;29.30;47.13
24045;BME280;26257;49.442;8.422;2022-09-09T11:00:25;100030.41;;;27.64;50.06
24045;BME280;26257;49.442;8.422;2022-09-09T11:02:56;100028.75;;;27.88;51.14
24045;BME280;26257;49.442;8.422;2022-09-09T11:08:09;100033.47;;;25.71;58.68
24045;BME280;26257;49.442;8.422;2022-09-09T11:10:44;100029.69;;;26.63;52.19
24045;BME280;26257;49.442;8.422;2022-09-09T11:13:25;100026.75;;;26.08;52.04
24045;BME280;26257;49.442;8.422;2022-09-09T11:18:42;100029.97;;;25.38;55.33
24045;BME280;26257;49.442;8.422;2022-09-09T11:21:23;100023.59;;;26.73;51.79
24045;BME280;26257;49.442;8.422;2022-09-09T11:23:59;100011.16;;;29.21;45.55
24045;BME280;26257;49.442;8.422;2022-09-09T11:26:33;100018.06;;;27.85;46.43
24045;BME280;26257;49.442;8.422;2022-09-09T11:38:18;100025.38;;;26.16;52.36
24045;BME280;26257;49.442;8.422;2022-09-09T11:40:45;100014.09;;;25.63;51.13
24045;BME280;26257;49.442;8.422;2022-09-09T11:43:20;100018.41;;;26.12;50.17
24045;BME280;26257;49.442;8.422;2022-09-09T11:45:57;100009.56;;;25.16;53.13
24045;BME280;26257;49.442;8.422;2022-09-09T11:48:41;100020.22;;;25.35;53.76
24045;BME280;26257;49.442;8.422;2022-09-09T11:53:56;100004.81;;;27.27;46.59
24045;BME280;26257;49.442;8.422;2022-09-09T11:56:41;100007.22;;;27.85;43.36
24045;BME280;26257;49.442;8.422;2022-09-09T11:59:26;100009.78;;;26.78;45.31
24045;BME280;26257;49.442;8.422;2022-09-09T12:02:02;100002.44;;;27.76;44.32
24045;BME280;26257;49.442;8.422;2022-09-09T12:04:35;99989.97;;;28.25;42.78
24045;BME280;26257;49.442;8.422;2022-09-09T12:07:28;100004.19;;;28.16;42.71
24045;BME280;26257;49.442;8.422;2022-09-09T12:10:52;100021.88;;;26.86;45.53
24045;BME280;26257;49.442;8.422;2022-09-09T12:13:16;100032.13;;;25.94;48.10
24045;BME280;26257;49.442;8.422;2022-09-09T12:16:00;100051.00;;;25.17;50.90
24045;BME280;26257;49.442;8.422;2022-09-09T12:21:07;100034.94;;;22.49;53.59
24045;BME280;26257;49.442;8.422;2022-09-09T12:23:50;100029.59;;;21.66;59.00
24045;BME280;26257;49.442;8.422;2022-09-09T12:34:40;100028.09;;;23.00;62.77
24045;BME280;26257;49.442;8.422;2022-09-09T12:37:29;100003.19;;;24.69;57.66
24045;BME280;26257;49.442;8.422;2022-09-09T12:39:59;100005.50;;;26.46;52.39
24045;BME280;26257;49.442;8.422;2022-09-09T12:42:30;100005.72;;;26.85;50.97
24045;BME280;26257;49.442;8.422;2022-09-09T12:45:03;99999.69;;;27.08;52.09
24045;BME280;26257;49.442;8.422;2022-09-09T12:47:38;99982.03;;;28.22;50.20
24045;BME280;26257;49.442;8.422;2022-09-09T12:50:21;99992.00;;;27.29;50.12
24045;BME280;26257;49.442;8.422;2022-09-09T12:52:48;99985.84;;;27.53;53.49
24045;BME280;26257;49.442;8.422;2022-09-09T12:55:21;100007.34;;;26.59;51.98
24045;BME280;26257;49.442;8.422;2022-09-09T12:57:50;100005.75;;;25.52;54.00
24045;BME280;26257;49.442;8.422;2022-09-09T13:00:21;99992.00;;;25.86;53.72
24045;BME280;26257;49.442;8.422;2022-09-09T13:02:55;99997.53;;;25.38;56.75
24045;BME280;26257;49.442;8.422;2022-09-09T13:05:24;100018.56;;;24.69;60.24
24045;BME280;26257;49.442;8.422;2022-09-09T13:07:51;100033.00;;;24.18;65.83
24045;BME280;26257;49.442;8.422;2022-09-09T13:10:40;100039.09;;;22.16;84.84
24045;BME280;26257;49.442;8.422;2022-09-09T13:13:17;100040.38;;;21.87;92.89
24045;BME280;26257;49.442;8.422;2022-09-09T13:15:51;100047.78;;;21.16;100.00
24045;BME280;26257;49.442;8.422;2022-09-09T13:18:22;100061.56;;;19.57;100.00
24045;BME280;26257;49.442;8.422;2022-09-09T13:20:49;100090.34;;;19.78;100.00
24045;BME280;26257;49.442;8.422;2022-09-09T13:23:15;100099.38;;;19.19;100.00
24045;BME280;26257;49.442;8.422;2022-09-09T13:25:53;100127.41;;;19.35;100.00
24045;BME280;26257;49.442;8.422;2022-09-09T13:28:21;100123.75;;;19.09;100.00
24045;BME280;26257;49.442;8.422;2022-09-09T13:31:20;100119.97;;;20.52;100.00
24045;BME280;26257;49.442;8.422;2022-09-09T13:33:46;100101.22;;;21.90;100.00
24045;BME280;26257;49.442;8.422;2022-09-09T13:36:12;100062.78;;;24.50;100.00
24045;BME280;26257;49.442;8.422;2022-09-09T13:41:42;100007.91;;;28.01;73.49
24045;BME280;26257;49.442;8.422;2022-09-09T13:44:25;100003.38;;;27.48;68.96
24045;BME280;26257;49.442;8.422;2022-09-09T13:47:04;100003.56;;;27.04;69.00
24045;BME280;26257;49.442;8.422;2022-09-09T13:49:30;100000.41;;;26.25;64.07
24045;BME280;26257;49.442;8.422;2022-09-09T13:52:12;100004.69;;;25.70;70.88
24045;BME280;26257;49.442;8.422;2022-09-09T13:54:39;100012.13;;;25.96;72.56
24045;BME280;26257;49.442;8.422;2022-09-09T13:57:16;100014.81;;;25.35;64.96
24045;BME280;26257;49.442;8.422;2022-09-09T13:59:44;100003.34;;;26.22;64.26
24045;BME280;26257;49.442;8.422;2022-09-09T14:02:09;99999.59;;;26.53;60.56
24045;BME280;26257;49.442;8.422;2022-09-09T14:04:35;100009.16;;;26.45;62.07
24045;BME280;26257;49.442;8.422;2022-09-09T14:07:01;99994.66;;;26.74;56.76
24045;BME280;26257;49.442;8.422;2022-09-09T14:09:26;99987.78;;;26.54;58.10
24045;BME280;26257;49.442;8.422;2022-09-09T14:11:52;99986.06;;;26.53;60.41
24045;BME280;26257;49.442;8.422;2022-09-09T14:14:17;99986.09;;;25.64;61.36
24045;BME280;26257;49.442;8.422;2022-09-09T14:16:43;99989.59;;;25.50;64.69
24045;BME280;26257;49.442;8.422;2022-09-09T14:19:08;99979.94;;;26.06;61.74
24045;BME280;26257;49.442;8.422;2022-09-09T14:21:34;99975.06;;;27.39;60.06
24045;BME280;26257;49.442;8.422;2022-09-09T14:24:00;99951.56;;;27.52;56.59
24045;BME280;26257;49.442;8.422;2022-09-09T14:26:25;99965.75;;;27.83;53.94
24045;BME280;26257;49.442;8.422;2022-09-09T14:28:51;99954.03;;;29.21;48.31
24045;BME280;26257;49.442;8.422;2022-09-09T14:31:17;99960.06;;;29.37;45.75
24045;BME280;26257;49.442;8.422;2022-09-09T14:33:43;99960.09;;;28.25;50.60
24045;BME280;26257;49.442;8.422;2022-09-09T14:36:09;99957.94;;;27.51;52.30
24045;BME280;26257;49.442;8.422;2022-09-09T14:38:37;99968.94;;;27.63;51.52
24045;BME280;26257;49.442;8.422;2022-09-09T14:41:05;99979.88;;;27.34;47.64
24045;BME280;26257;49.442;8.422;2022-09-09T14:43:31;99975.44;;;26.78;52.94
24045;BME280;26257;49.442;8.422;2022-09-09T14:46:07;99974.13;;;26.27;54.11
24045;BME280;26257;49.442;8.422;2022-09-09T14:48:33;99969.69;;;25.97;55.06
24045;BME280;26257;49.442;8.422;2022-09-09T14:51:10;99980.81;;;25.31;54.60
24045;BME280;26257;49.442;8.422;2022-09-09T14:53:36;100003.00;;;24.24;59.35
24045;BME280;26257;49.442;8.422;2022-09-09T14:56:14;100012.34;;;23.47;63.04
24045;BME280;26257;49.442;8.422;2022-09-09T14:58:41;100035.06;;;22.46;72.31
24045;BME280;26257;49.442;8.422;2022-09-09T15:01:15;100037.59;;;21.89;78.33
24045;BME280;26257;49.442;8.422;2022-09-09T15:03:43;100059.09;;;21.01;84.60
24045;BME280;26257;49.442;8.422;2022-09-09T15:06:12;100069.13;;;20.23;98.40
24045;BME280;26257;49.442;8.422;2022-09-09T15:08:40;100096.88;;;18.17;100.00
24045;BME280;26257;49.442;8.422;2022-09-09T15:11:06;100143.22;;;18.53;100.00
24045;BME280;26257;49.442;8.422;2022-09-09T15:13:36;100140.56;;;19.44;100.00
24045;BME280;26257;49.442;8.422;2022-09-09T15:16:18;100085.19;;;23.08;100.00
24045;BME280;26257;49.442;8.422;2022-09-09T15:18:45;100049.47;;;25.29;82.52
24045;BME280;26257;49.442;8.422;2022-09-09T15:21:16;100100.63;;;17.76;100.00
24045;BME280;26257;49.442;8.422;2022-09-09T15:23:42;100097.56;;;17.18;100.00
24045;BME280;26257;49.442;8.422;2022-09-09T15:26:08;100101.34;;;17.46;100.00
24045;BME280;26257;49.442;8.422;2022-09-09T15:28:36;100098.63;;;17.48;100.00
24045;BME280;26257;49.442;8.422;2022-09-09T15:31:09;100090.69;;;18.17;100.00
24045;BME280;26257;49.442;8.422;2022-09-09T15:33:35;100068.78;;;18.67;100.00
24045;BME280;26257;49.442;8.422;2022-09-09T15:36:13;100056.47;;;19.76;100.00
24045;BME280;26257;49.442;8.422;2022-09-09T15:38:39;100052.66;;;19.27;100.00
24045;BME280;26257;49.442;8.422;2022-09-09T15:41:04;100046.22;;;19.88;100.00
24045;BME280;26257;49.442;8.422;2022-09-09T15:43:29;100034.66;;;20.12;100.00
24045;BME280;26257;49.442;8.422;2022-09-09T15:46:00;100022.94;;;20.40;100.00